Time;durP1;ratioP1;P1;durP2;ratioP2;P2;SDS_P1;SDS_P2;PMS_P1;PMS_P2;Temp;Humidity;BMP_temperature;BMP_pressure;BME280_temperature;BME280_humidity;BME280_pressure;Samples;Min_cycle;Max_cycle;Signal;HPM_P1;HPM_P2
2022/06/29 00:00:25;;;;;;;4.20;2.38;;;;;;;16.42;56.96;99806.47;5016684;28;20076;-48
2022/06/29 00:02:52;;;;;;;1.77;1.23;;;;;;;16.38;57.60;99812.69;5007568;28;20482;-45
2022/06/29 00:05:22;;;;;;;5.65;1.83;;;;;;;16.41;56.93;99807.38;4987864;28;20056;-45
2022/06/29 00:07:49;;;;;;;4.05;1.88;;;;;;;16.35;57.32;99797.09;5000344;28;20061;-45
2022/06/29 00:10:17;;;;;;;7.10;1.98;;;;;;;16.31;57.95;99801.56;5022310;28;20046;-46
2022/06/29 00:12:45;;;;;;;4.32;2.03;;;;;;;16.29;58.20;99802.53;5016880;28;20068;-44
2022/06/29 00:15:13;;;;;;;5.38;1.35;;;;;;;16.28;57.94;99800.81;5011656;28;20054;-47
2022/06/29 00:17:40;;;;;;;6.28;2.10;;;;;;;16.24;57.77;99799.22;5010259;28;20084;-47
2022/06/29 00:20:10;;;;;;;3.92;1.52;;;;;;;16.23;57.71;99797.47;5011286;28;20053;-44
2022/06/29 00:22:37;;;;;;;4.88;1.83;;;;;;;16.21;57.18;99794.91;5005929;28;20077;-47
2022/06/29 00:25:04;;;;;;;2.75;1.98;;;;;;;16.19;57.71;99800.19;4993620;28;20057;-45
2022/06/29 00:27:32;;;;;;;4.10;1.60;;;;;;;16.15;57.56;99795.94;5018014;28;20045;-44
2022/06/29 00:29:59;;;;;;;3.10;1.75;;;;;;;16.16;57.70;99795.06;5013322;28;20057;-47
2022/06/29 00:32:26;;;;;;;3.63;1.77;;;;;;;16.17;57.88;99799.38;4984280;28;20054;-48
2022/06/29 00:34:52;;;;;;;4.80;1.63;;;;;;;16.13;57.60;99800.38;5008485;28;20427;-44
2022/06/29 00:37:19;;;;;;;6.85;1.88;;;;;;;16.15;57.69;99795.94;5017013;28;20207;-46
2022/06/29 00:39:45;;;;;;;3.42;1.10;;;;;;;16.14;57.99;99791.63;5011970;28;20403;-49
2022/06/29 00:42:12;;;;;;;3.67;2.28;;;;;;;16.13;57.51;99782.09;5003872;28;20045;-49
2022/06/29 00:44:39;;;;;;;3.45;2.00;;;;;;;16.11;57.71;99789.09;5011840;28;20061;-45
2022/06/29 00:47:06;;;;;;;8.13;1.75;;;;;;;16.09;57.33;99790.94;5005321;28;20061;-47
2022/06/29 00:49:34;;;;;;;5.88;1.52;;;;;;;16.11;57.33;99789.09;5013038;28;20057;-44
2022/06/29 00:52:10;;;;;;;2.65;0.85;;;;;;;16.06;57.94;99786.66;4984257;28;20571;-47
2022/06/29 00:54:41;;;;;;;5.18;2.03;;;;;;;16.08;57.79;99789.22;5002780;28;20054;-47
2022/06/29 00:57:14;;;;;;;4.47;1.75;;;;;;;16.04;57.63;99777.13;5002278;28;20060;-44
2022/06/29 00:59:44;;;;;;;5.32;2.25;;;;;;;16.00;58.40;99772.91;5008440;28;20461;-44
2022/06/29 01:02:12;;;;;;;5.68;1.70;;;;;;;16.01;57.67;99772.84;5006074;28;20566;-44
2022/06/29 01:04:40;;;;;;;4.15;1.52;;;;;;;16.01;57.77;99782.47;5009549;28;20425;-46
2022/06/29 01:07:06;;;;;;;5.05;1.73;;;;;;;16.00;57.71;99783.34;5009900;28;20045;-47
2022/06/29 01:09:34;;;;;;;3.33;1.85;;;;;;;15.98;58.58;99767.75;5009474;28;20045;-48
2022/06/29 01:12:01;;;;;;;3.95;1.67;;;;;;;15.98;58.10;99775.59;5012573;28;20051;-48
2022/06/29 01:14:28;;;;;;;3.25;2.25;;;;;;;15.97;58.41;99775.63;5017652;28;20666;-46
2022/06/29 01:16:59;;;;;;;4.43;1.55;;;;;;;15.93;58.79;99773.06;5008958;28;20053;-44
2022/06/29 01:19:26;;;;;;;1.80;1.67;;;;;;;15.94;57.97;99781.72;4980803;28;20064;-44
2022/06/29 01:21:55;;;;;;;3.78;1.70;;;;;;;15.97;58.25;99775.63;4989667;28;20826;-45
2022/06/29 01:24:22;;;;;;;3.85;1.48;;;;;;;15.93;58.47;99778.28;4982791;28;20124;-45
2022/06/29 01:26:49;;;;;;;1.95;1.73;;;;;;;15.91;59.04;99777.47;4984177;28;20049;-45
2022/06/29 01:29:16;;;;;;;4.70;1.75;;;;;;;15.93;58.22;99780.03;4996045;28;20104;-44
2022/06/29 01:31:44;;;;;;;3.55;1.40;;;;;;;15.94;58.18;99782.59;5010064;28;20049;-47
2022/06/29 01:34:10;;;;;;;3.58;1.70;;;;;;;15.94;58.58;99772.16;5012576;28;20045;-44
2022/06/29 01:36:37;;;;;;;2.92;1.75;;;;;;;15.93;58.83;99770.44;5015135;28;20104;-46
2022/06/29 01:39:04;;;;;;;4.40;1.38;;;;;;;15.94;58.62;99771.28;5011042;28;20442;-46
2022/06/29 01:41:30;;;;;;;3.20;1.92;;;;;;;15.93;58.71;99764.38;5017128;28;20091;-43
2022/06/29 01:43:57;;;;;;;3.35;1.83;;;;;;;15.85;59.83;99767.22;5014284;28;20104;-45
2022/06/29 01:46:24;;;;;;;5.70;1.48;;;;;;;15.84;59.63;99769.88;5012621;28;20050;-44
2022/06/29 01:48:51;;;;;;;2.15;0.55;;;;;;;15.74;60.05;99766.66;5010902;28;20383;-44
2022/06/29 01:51:17;;;;;;;4.70;1.40;;;;;;;15.70;60.32;99767.66;5010317;28;20049;-46
2022/06/29 01:53:44;;;;;;;2.78;1.67;;;;;;;15.67;60.53;99766.84;5006956;28;20048;-45
2022/06/29 01:56:11;;;;;;;6.53;0.95;;;;;;;15.63;60.60;99757.38;5015744;28;20413;-43
2022/06/29 01:58:37;;;;;;;4.53;3.13;;;;;;;15.58;60.62;99764.50;5006936;28;20041;-44
2022/06/29 02:01:05;;;;;;;3.80;1.73;;;;;;;15.58;61.18;99761.00;4985027;28;20054;-45
2022/06/29 02:03:32;;;;;;;3.33;1.27;;;;;;;15.56;61.22;99761.06;5011567;28;20054;-45
2022/06/29 02:05:59;;;;;;;3.20;1.38;;;;;;;15.55;61.03;99759.34;5018497;28;20098;-45
2022/06/29 02:08:26;;;;;;;5.10;1.63;;;;;;;15.52;61.36;99759.44;5009689;28;20974;-45
2022/06/29 02:10:52;;;;;;;3.08;2.67;;;;;;;15.50;61.66;99762.09;5013087;28;20591;-44
2022/06/29 02:13:19;;;;;;;3.65;1.75;;;;;;;15.49;61.56;99754.28;5012306;28;20115;-44
2022/06/29 02:15:45;;;;;;;1.95;0.90;;;;;;;15.47;61.98;99750.88;5010981;28;20434;-45
2022/06/29 02:18:12;;;;;;;2.92;0.75;;;;;;;15.44;62.10;99750.97;5013419;28;20383;-44
2022/06/29 02:20:39;;;;;;;7.22;1.77;;;;;;;15.45;61.39;99752.66;5021321;28;20076;-44
2022/06/29 02:23:05;;;;;;;4.40;1.80;;;;;;;15.39;61.75;99733.69;5009868;28;20112;-47
2022/06/29 02:25:32;;;;;;;7.07;2.03;;;;;;;15.42;62.17;99738.81;4993166;28;20073;-45
2022/06/29 02:27:58;;;;;;;7.43;2.15;;;;;;;15.44;62.36;99745.75;4987287;28;20116;-42
2022/06/29 02:35:58;;;;;;;3.13;1.67;;;;;;;15.44;62.26;99740.53;4985262;28;20050;-44
2022/06/29 02:38:25;;;;;;;6.38;2.13;;;;;;;15.45;62.42;99734.41;4993227;28;20053;-45
2022/06/29 02:40:51;;;;;;;4.00;1.77;;;;;;;15.42;63.07;99733.59;5002492;28;20038;-42
2022/06/29 02:43:18;;;;;;;5.43;1.90;;;;;;;15.43;63.09;99739.66;5011399;28;20132;-43
2022/06/29 02:45:45;;;;;;;6.38;2.28;;;;;;;15.39;63.82;99732.81;5017303;28;20046;-45
2022/06/29 02:48:12;;;;;;;2.80;1.92;;;;;;;15.39;63.51;99728.47;5014650;28;20057;-42
2022/06/29 02:50:38;;;;;;;4.45;1.75;;;;;;;15.33;64.25;99726.00;5013418;28;20111;-44
2022/06/29 02:53:05;;;;;;;5.00;2.22;;;;;;;15.29;65.41;99721.78;5003696;28;20061;-45
2022/06/29 02:55:31;;;;;;;3.40;1.15;;;;;;;15.24;64.93;99713.25;5010185;28;20398;-45
2022/06/29 02:57:58;;;;;;;3.53;1.30;;;;;;;15.15;65.83;99703.91;5008695;28;20441;-41
2022/06/29 03:00:25;;;;;;;4.15;1.27;;;;;;;15.10;65.94;99705.78;5006123;28;20077;-45
2022/06/29 03:02:51;;;;;;;4.43;3.03;;;;;;;15.10;65.65;99706.63;5010114;28;20099;-43
2022/06/29 03:05:18;;;;;;;4.28;2.10;;;;;;;15.09;66.00;99709.28;5007280;28;20050;-42
2022/06/29 03:07:45;;;;;;;4.20;2.05;;;;;;;14.98;67.36;99701.75;5010561;28;20679;-44
2022/06/29 03:10:11;;;;;;;6.38;2.15;;;;;;;14.98;67.76;99701.75;5010073;28;20049;-42
2022/06/29 03:12:38;;;;;;;6.53;1.98;;;;;;;14.97;66.97;99695.69;5010126;28;20472;-43
2022/06/29 03:15:06;;;;;;;3.97;2.13;;;;;;;14.88;68.63;99702.00;5007931;28;20597;-43
2022/06/29 03:17:32;;;;;;;3.88;1.65;;;;;;;14.83;68.52;99692.59;5012937;28;20049;-41
2022/06/29 03:20:01;;;;;;;5.78;1.95;;;;;;;14.81;68.54;99692.63;5019119;28;20075;-43
2022/06/29 03:22:28;;;;;;;5.65;2.60;;;;;;;14.80;68.30;99688.31;5012810;28;20050;-41
2022/06/29 03:24:54;;;;;;;4.68;1.40;;;;;;;14.75;69.40;99693.59;5007609;28;20108;-41
2022/06/29 03:27:21;;;;;;;3.90;2.13;;;;;;;14.69;70.02;99679.88;5012338;28;20053;-42
2022/06/29 03:29:47;;;;;;;4.63;2.00;;;;;;;14.66;70.07;99691.25;5013471;28;20041;-47
2022/06/29 03:32:14;;;;;;;4.15;2.22;;;;;;;14.64;70.48;99688.69;5009425;28;20631;-45
2022/06/29 03:34:41;;;;;;;4.57;1.65;;;;;;;14.64;70.01;99693.88;5013002;28;20050;-44
2022/06/29 03:37:08;;;;;;;5.55;1.63;;;;;;;14.61;70.75;99686.16;5012277;28;20053;-41
2022/06/29 03:39:35;;;;;;;2.95;1.90;;;;;;;14.62;70.04;99690.44;5000672;28;20724;-45
2022/06/29 03:42:02;;;;;;;2.42;1.58;;;;;;;14.62;70.51;99680.03;5008600;28;20064;-42
2022/06/29 03:44:29;;;;;;;5.88;1.98;;;;;;;14.58;71.57;99687.94;5010777;28;20050;-44
2022/06/29 03:46:55;;;;;;;4.72;1.85;;;;;;;14.53;71.37;99688.94;5008012;28;20058;-43
2022/06/29 03:49:22;;;;;;;3.60;2.30;;;;;;;14.51;72.82;99687.25;4993071;28;20050;-42
2022/06/29 03:51:49;;;;;;;2.25;1.50;;;;;;;14.46;73.43;99683.94;5001001;28;20116;-46
2022/06/29 03:54:15;;;;;;;6.22;2.03;;;;;;;14.45;72.21;99688.25;5006775;28;20461;-44
2022/06/29 03:56:42;;;;;;;9.13;2.17;;;;;;;14.46;73.28;99689.13;5008440;28;20054;-46
2022/06/29 03:59:09;;;;;;;3.92;1.92;;;;;;;14.47;72.59;99688.22;5013081;28;20104;-43
2022/06/29 04:01:35;;;;;;;5.70;2.17;;;;;;;14.51;72.90;99687.25;5012988;28;20049;-45
2022/06/29 04:04:02;;;;;;;3.15;1.48;;;;;;;14.45;73.10;99688.25;5005920;28;20053;-44
2022/06/29 04:06:29;;;;;;;6.72;2.42;;;;;;;14.50;72.94;99690.78;5013429;28;20065;-47
2022/06/29 04:08:56;;;;;;;6.75;2.22;;;;;;;14.48;73.54;99692.53;5010291;28;20038;-46
2022/06/29 04:14:09;;;;;;;6.68;2.00;;;;;;;14.39;74.27;99689.28;5015387;28;20110;-45
2022/06/29 04:16:36;;;;;;;3.78;1.83;;;;;;;14.45;73.12;99698.69;5008690;28;20061;-45
2022/06/29 04:19:02;;;;;;;7.80;2.15;;;;;;;14.45;73.47;99690.88;5011419;28;20054;-44
2022/06/29 04:21:29;;;;;;;4.85;2.40;;;;;;;14.46;73.28;99683.94;5007945;28;20057;-45
2022/06/29 04:23:56;;;;;;;5.15;2.00;;;;;;;14.38;74.05;99691.91;5009978;28;20049;-44
2022/06/29 04:26:22;;;;;;;6.10;2.25;;;;;;;14.48;73.60;99692.53;5012229;28;20100;-42
2022/06/29 04:28:49;;;;;;;5.03;2.40;;;;;;;14.51;73.28;99689.88;5011275;28;20065;-43
2022/06/29 04:31:15;;;;;;;4.38;2.67;;;;;;;14.51;73.37;99693.34;5014178;28;20474;-44
2022/06/29 04:33:42;;;;;;;4.38;2.10;;;;;;;14.54;73.61;99687.19;5010517;28;20049;-45
2022/06/29 04:36:09;;;;;;;6.82;2.20;;;;;;;14.48;74.02;99687.34;5010650;28;20147;-45
2022/06/29 04:38:36;;;;;;;8.18;2.25;;;;;;;14.50;73.94;99688.16;5012192;28;20042;-43
2022/06/29 04:41:02;;;;;;;4.43;2.22;;;;;;;14.50;74.40;99689.03;5016713;28;20099;-45
2022/06/29 04:43:30;;;;;;;5.35;2.20;;;;;;;14.57;73.66;99692.34;5009312;28;20710;-44
2022/06/29 04:48:44;;;;;;;5.32;1.85;;;;;;;14.58;73.82;99688.81;5011223;28;20049;-46
2022/06/29 04:51:11;;;;;;;5.38;2.50;;;;;;;14.61;73.55;99688.75;5007111;28;20108;-42
2022/06/29 04:53:38;;;;;;;3.50;2.17;;;;;;;14.62;74.32;99690.44;5007159;28;20088;-43
2022/06/29 04:56:05;;;;;;;7.00;1.85;;;;;;;14.65;73.99;99689.50;5013408;28;20624;-45
2022/06/29 04:58:31;;;;;;;5.80;2.45;;;;;;;14.69;73.79;99685.09;5011033;28;20049;-44
2022/06/29 05:00:58;;;;;;;3.90;1.83;;;;;;;14.67;74.44;99692.09;5013202;28;20422;-43
2022/06/29 05:03:25;;;;;;;5.72;2.53;;;;;;;14.69;73.55;99682.50;5008412;28;20054;-44
2022/06/29 05:05:52;;;;;;;7.45;2.42;;;;;;;14.72;74.00;99679.78;5012134;28;20053;-43
2022/06/29 05:08:18;;;;;;;9.43;2.42;;;;;;;14.74;73.64;99689.31;5009595;28;20100;-44
2022/06/29 05:10:45;;;;;;;6.05;2.17;;;;;;;14.77;73.48;99688.38;5014878;28;20056;-43
2022/06/29 05:13:12;;;;;;;7.30;2.47;;;;;;;14.76;73.67;99681.44;5017696;28;20045;-45
2022/06/29 05:15:39;;;;;;;3.75;2.22;;;;;;;14.78;74.01;99674.44;5011182;28;20052;-44
2022/06/29 05:18:06;;;;;;;5.03;2.15;;;;;;;14.79;74.15;99681.38;5015254;28;20050;-46
2022/06/29 05:20:33;;;;;;;5.93;2.35;;;;;;;14.82;73.73;99673.47;5011201;28;20463;-46
2022/06/29 05:23:00;;;;;;;5.15;1.15;;;;;;;14.81;74.50;99679.59;5011423;28;20410;-45
2022/06/29 05:25:26;;;;;;;4.63;1.92;;;;;;;14.84;73.42;99679.50;5007236;28;20042;-47
2022/06/29 05:27:53;;;;;;;3.25;2.33;;;;;;;14.86;73.82;99680.31;5010732;28;20120;-43
2022/06/29 05:30:20;;;;;;;4.82;2.35;;;;;;;14.87;73.49;99676.84;5014264;28;20052;-46
2022/06/29 05:32:46;;;;;;;4.25;2.15;;;;;;;14.88;73.65;99681.16;5021175;28;20437;-44
2022/06/29 05:35:13;;;;;;;8.82;2.72;;;;;;;14.90;73.79;99671.50;5011274;28;20105;-42
2022/06/29 05:37:41;;;;;;;7.45;2.08;;;;;;;14.90;73.62;99674.13;5014088;28;20045;-43
2022/06/29 05:40:08;;;;;;;4.32;1.30;;;;;;;14.90;74.48;99673.28;5018263;28;20362;-44
2022/06/29 05:42:35;;;;;;;5.70;2.47;;;;;;;14.90;73.94;99663.69;5014868;28;20053;-42
2022/06/29 05:45:01;;;;;;;5.22;2.63;;;;;;;14.84;74.63;99668.22;5009962;28;20054;-42
2022/06/29 05:47:28;;;;;;;4.55;2.50;;;;;;;14.90;73.62;99663.69;5009115;28;20100;-43
2022/06/29 05:49:57;;;;;;;6.75;2.22;;;;;;;14.93;73.64;99664.50;5006668;28;20109;-44
2022/06/29 05:52:24;;;;;;;6.45;2.20;;;;;;;14.92;73.79;99660.22;4992423;28;20056;-44
2022/06/29 05:54:50;;;;;;;4.40;2.13;;;;;;;14.93;74.20;99669.72;5011389;28;20049;-43
2022/06/29 05:57:19;;;;;;;5.82;2.90;;;;;;;14.92;74.46;99668.03;5010962;28;20669;-43
2022/06/29 05:59:47;;;;;;;5.45;2.75;;;;;;;14.90;74.34;99666.28;5015274;28;20054;-41
2022/06/29 06:02:14;;;;;;;2.97;2.30;;;;;;;14.86;74.41;99662.06;4999849;28;20050;-45
2022/06/29 06:04:40;;;;;;;3.17;1.40;;;;;;;14.84;74.78;99673.44;5032115;28;20455;-43
2022/06/29 06:07:07;;;;;;;4.32;2.25;;;;;;;14.87;74.55;99662.94;5011561;28;20050;-45
2022/06/29 06:09:34;;;;;;;7.15;2.58;;;;;;;14.94;74.38;99668.81;5019065;28;20041;-42
2022/06/29 06:12:00;;;;;;;8.07;2.95;;;;;;;15.06;74.77;99665.03;5012107;28;20107;-46
2022/06/29 06:14:27;;;;;;;8.27;2.55;;;;;;;15.19;74.47;99673.38;5008035;28;20046;-42
2022/06/29 06:16:53;;;;;;;4.60;2.45;;;;;;;15.23;74.40;99669.78;5018382;28;20132;-43
2022/06/29 06:19:20;;;;;;;3.42;2.38;;;;;;;15.26;73.89;99662.72;5010474;28;20053;-45
2022/06/29 06:21:47;;;;;;;5.80;2.63;;;;;;;15.40;74.09;99677.97;5014013;28;20104;-43
2022/06/29 06:24:13;;;;;;;6.30;2.78;;;;;;;15.59;74.97;99677.44;5015434;28;20057;-42
2022/06/29 06:26:40;;;;;;;4.68;2.13;;;;;;;15.85;74.82;99669.72;5015213;28;20053;-46
2022/06/29 06:29:09;;;;;;;4.85;1.63;;;;;;;16.05;74.67;99674.38;5005353;28;20043;-46
2022/06/29 06:31:36;;;;;;;3.15;1.70;;;;;;;16.22;74.00;99659.91;4985488;28;20108;-43
2022/06/29 06:34:03;;;;;;;3.25;2.13;;;;;;;16.42;74.28;99670.53;4987393;28;20074;-44
2022/06/29 06:36:29;;;;;;;3.35;2.10;;;;;;;16.72;74.48;99672.16;4981458;28;20046;-45
2022/06/29 06:38:56;;;;;;;3.83;2.22;;;;;;;16.93;73.27;99673.19;4984099;28;20174;-44
2022/06/29 06:41:22;;;;;;;4.43;2.15;;;;;;;17.12;73.77;99677.81;4988426;28;20054;-43
2022/06/29 06:43:51;;;;;;;5.68;1.00;;;;;;;17.27;72.28;99680.78;4983005;28;20666;-43
2022/06/29 06:46:19;;;;;;;4.75;2.42;;;;;;;17.35;71.30;99673.50;4987274;28;20043;-43
2022/06/29 06:48:46;;;;;;;3.55;1.77;;;;;;;17.43;71.03;99676.69;4992967;28;20119;-44
2022/06/29 06:51:13;;;;;;;4.60;1.90;;;;;;;17.61;71.83;99684.75;5000324;28;20050;-45
2022/06/29 06:53:39;;;;;;;5.78;3.35;;;;;;;17.76;70.50;99687.72;5011931;28;20141;-46
2022/06/29 06:56:07;;;;;;;3.42;1.83;;;;;;;17.84;70.33;99681.25;5012178;28;20104;-45
2022/06/29 06:58:35;;;;;;;3.38;1.08;;;;;;;17.89;69.79;99688.06;5016760;28;20386;-44
2022/06/29 07:01:11;;;;;;;3.58;2.63;;;;;;;17.93;69.83;99695.75;5004459;28;20104;-45
2022/06/29 07:03:38;;;;;;;1.90;1.60;;;;;;;18.04;69.96;99691.88;5007928;28;20075;-46
2022/06/29 07:06:07;;;;;;;5.13;1.83;;;;;;;18.28;69.10;99690.06;4999789;28;20058;-48
2022/06/29 07:08:36;;;;;;;4.53;2.15;;;;;;;18.47;68.51;99690.16;4983045;28;20056;-47
2022/06/29 07:11:04;;;;;;;4.97;1.60;;;;;;;18.66;68.51;99692.00;5017362;28;20053;-46
2022/06/29 07:13:34;;;;;;;6.35;2.33;;;;;;;18.84;68.71;99684.25;5009299;28;20076;-47
2022/06/29 07:16:03;;;;;;;2.75;1.48;;;;;;;19.07;67.66;99682.44;5008406;28;20080;-49
2022/06/29 07:18:31;;;;;;;5.47;2.30;;;;;;;19.37;67.98;99679.38;4994969;28;20052;-47
2022/06/29 07:20:59;;;;;;;5.65;1.73;;;;;;;19.64;66.61;99679.03;5008942;28;20042;-45
2022/06/29 07:23:27;;;;;;;5.38;1.45;;;;;;;19.66;65.03;99685.06;5002156;28;20092;-47
2022/06/29 07:25:55;;;;;;;3.20;1.17;;;;;;;19.51;63.77;99695.34;5015650;28;20041;-51
2022/06/29 07:28:22;;;;;;;2.70;1.48;;;;;;;19.38;63.20;99686.31;5024103;28;20049;-47
2022/06/29 07:30:49;;;;;;;2.70;1.27;;;;;;;19.19;63.28;99691.56;5026759;28;20038;-45
2022/06/29 07:33:16;;;;;;;3.55;1.92;;;;;;;19.11;63.76;99690.13;5022682;28;20136;-49
2022/06/29 07:35:43;;;;;;;3.22;1.58;;;;;;;19.34;64.84;99685.63;5014327;28;20053;-50
2022/06/29 07:38:10;;;;;;;5.57;1.83;;;;;;;19.74;65.05;99688.19;5041567;28;20045;-48
2022/06/29 07:40:37;;;;;;;4.38;2.15;;;;;;;20.18;65.02;99678.28;5047258;28;20048;-50
2022/06/29 07:43:04;;;;;;;7.95;2.03;;;;;;;20.55;63.51;99684.34;5023719;28;20067;-48
2022/06/29 07:45:31;;;;;;;4.38;1.80;;;;;;;20.83;63.63;99691.75;5038567;28;20053;-46
2022/06/29 07:48:01;;;;;;;3.70;1.73;;;;;;;20.99;61.91;99691.81;5032230;28;20136;-48
2022/06/29 07:50:28;;;;;;;4.13;1.85;;;;;;;21.00;61.00;99689.13;5024266;28;20047;-48
2022/06/29 07:52:55;;;;;;;2.50;1.27;;;;;;;20.93;60.65;99695.63;5011239;28;20044;-46
2022/06/29 07:55:21;;;;;;;2.80;2.22;;;;;;;20.86;60.56;99686.31;5045761;28;20056;-47
2022/06/29 07:57:50;;;;;;;4.07;1.90;;;;;;;20.90;60.96;99675.59;5025496;28;20551;-46
2022/06/29 08:00:16;;;;;;;6.25;1.55;;;;;;;21.03;60.97;99678.44;5041581;28;20041;-48
2022/06/29 08:02:43;;;;;;;4.55;1.70;;;;;;;21.01;58.70;99680.28;5045342;28;20058;-45
2022/06/29 08:05:10;;;;;;;4.47;2.13;;;;;;;20.96;58.56;99679.69;5044264;28;20053;-48
2022/06/29 08:07:37;;;;;;;3.83;1.00;;;;;;;21.04;58.10;99689.81;5042060;28;20404;-48
2022/06/29 08:10:05;;;;;;;3.30;1.67;;;;;;;21.13;57.73;99684.06;5037171;28;20132;-48
2022/06/29 08:12:31;;;;;;;6.80;1.52;;;;;;;21.19;57.44;99683.75;5036953;28;20492;-47
2022/06/29 08:14:58;;;;;;;4.45;2.00;;;;;;;21.37;57.46;99680.19;5047383;28;20048;-48
2022/06/29 08:17:25;;;;;;;2.30;1.48;;;;;;;21.74;57.40;99678.22;5044662;28;20047;-48
2022/06/29 08:19:59;;;;;;;5.03;1.67;;;;;;;21.86;55.93;99670.56;5041352;28;20064;-47
2022/06/29 08:22:26;;;;;;;3.10;1.60;;;;;;;21.80;56.17;99671.75;5020980;28;20185;-51
2022/06/29 08:24:53;;;;;;;6.20;2.08;;;;;;;21.94;56.08;99681.50;5042928;28;20053;-47
2022/06/29 08:27:22;;;;;;;2.75;1.45;;;;;;;22.02;55.34;99679.28;5029840;28;20076;-48
2022/06/29 08:30:09;;;;;;;4.28;1.45;;;;;;;22.00;55.30;99669.78;5032391;28;20053;-47
2022/06/29 08:32:39;;;;;;;3.08;1.70;;;;;;;22.01;55.17;99666.19;5014818;28;20083;-46
2022/06/29 08:35:06;;;;;;;3.45;1.90;;;;;;;21.98;54.63;99663.75;5027217;28;20114;-47
2022/06/29 08:37:37;;;;;;;2.97;2.20;;;;;;;21.96;54.81;99655.94;5052137;28;20490;-48
2022/06/29 08:40:06;;;;;;;4.18;1.63;;;;;;;22.08;54.30;99660.50;5063551;28;20492;-49
2022/06/29 08:42:36;;;;;;;4.40;1.83;;;;;;;22.14;53.83;99679.53;5064893;28;20048;-47
2022/06/29 08:45:04;;;;;;;4.30;2.03;;;;;;;22.11;53.99;99701.66;5046754;28;20048;-48
2022/06/29 08:47:30;;;;;;;4.40;1.77;;;;;;;22.08;54.20;99697.41;5053475;28;20040;-47
2022/06/29 08:49:57;;;;;;;4.05;1.77;;;;;;;21.99;54.22;99690.03;5073133;28;20171;-47
2022/06/29 08:52:26;;;;;;;6.00;2.13;;;;;;;21.86;53.63;99699.56;5071669;28;20051;-47
2022/06/29 08:54:54;;;;;;;6.03;1.83;;;;;;;21.63;53.19;99699.88;5072230;28;20118;-49
2022/06/29 08:57:23;;;;;;;6.68;1.77;;;;;;;21.47;53.98;99697.22;5072498;28;20059;-50
2022/06/29 08:59:52;;;;;;;6.05;1.67;;;;;;;21.35;53.84;99703.13;5074423;28;20064;-47
2022/06/29 09:02:28;;;;;;;4.28;2.17;;;;;;;21.31;53.72;99702.47;5052273;28;20056;-48
2022/06/29 09:04:55;;;;;;;3.35;1.65;;;;;;;21.28;53.89;99702.63;5069775;28;20048;-46
2022/06/29 09:07:23;;;;;;;5.88;1.92;;;;;;;21.29;53.75;99705.19;5068871;28;20055;-47
2022/06/29 09:12:34;;;;;;;3.80;1.20;;;;;;;21.29;54.04;99715.72;4972338;28;20911;-45
2022/06/29 09:15:04;;;;;;;4.43;1.00;;;;;;;21.32;53.78;99707.63;4957511;28;20074;-47
2022/06/29 09:17:32;;;;;;;2.30;1.00;;;;;;;21.44;54.44;99718.44;4951852;28;20047;-49
2022/06/29 09:20:00;;;;;;;6.65;1.20;;;;;;;21.61;54.06;99719.34;4952555;28;20054;-46
2022/06/29 09:22:51;;;;;;;3.95;1.30;;;;;;;21.76;53.21;99721.16;4954602;28;20082;-45
2022/06/29 09:25:28;;;;;;;3.42;1.00;;;;;;;21.95;53.76;99733.31;4948204;28;20056;-46
2022/06/29 09:27:55;;;;;;;4.15;0.95;;;;;;;22.08;53.48;99728.19;4952171;28;20043;-46
2022/06/29 09:30:38;;;;;;;6.22;0.80;;;;;;;22.06;53.11;99724.81;4955981;28;20047;-48
2022/06/29 09:33:07;;;;;;;4.50;0.95;;;;;;;22.13;52.73;99720.03;4947524;28;20039;-44
2022/06/29 09:35:37;;;;;;;4.28;1.20;;;;;;;22.17;52.62;99716.28;4952259;28;20087;-47
2022/06/29 09:38:23;;;;;;;4.20;1.10;;;;;;;22.14;52.04;99721.72;4941933;28;20724;-47
2022/06/29 09:40:59;;;;;;;6.82;1.40;;;;;;;22.22;52.38;99719.50;4950329;28;20040;-48
2022/06/29 09:43:27;;;;;;;6.55;1.10;;;;;;;22.28;52.21;99724.44;4947020;28;20056;-52
2022/06/29 09:45:55;;;;;;;4.15;0.80;;;;;;;22.35;52.25;99732.84;4948258;28;20133;-46
2022/06/29 09:48:24;;;;;;;5.05;1.70;;;;;;;22.43;51.40;99727.13;4949440;28;20051;-51
2022/06/29 09:50:53;;;;;;;2.55;0.88;;;;;;;22.42;51.40;99726.28;4946607;28;20055;-49
2022/06/29 09:53:30;;;;;;;4.47;1.17;;;;;;;22.58;51.71;99731.56;4948332;28;20070;-48
2022/06/29 09:56:02;;;;;;;4.53;0.90;;;;;;;22.96;52.29;99721.44;4950261;28;20389;-47
2022/06/29 09:58:35;;;;;;;6.65;1.15;;;;;;;23.38;51.55;99718.09;4948599;28;20476;-50
2022/06/29 10:03:51;;;;;;;5.63;1.15;;;;;;;23.97;50.36;99714.41;4947327;28;20138;-47
2022/06/29 10:06:18;;;;;;;6.07;0.85;;;;;;;24.10;49.66;99710.03;4949127;28;20051;-48
2022/06/29 10:08:46;;;;;;;4.10;1.27;;;;;;;24.22;49.24;99712.88;4944211;28;20417;-46
2022/06/29 10:14:25;;;;;;;2.90;0.77;;;;;;;24.33;49.44;99702.44;4949025;28;20105;-48
2022/06/29 10:22:20;;;;;;;4.35;2.17;;;;;;;24.19;47.52;99687.47;5050847;28;20927;-48
2022/06/29 10:25:04;;;;;;;5.53;2.33;;;;;;;24.20;48.86;99689.16;5005976;28;20560;-48
2022/06/29 10:27:32;;;;;;;5.38;1.70;;;;;;;24.46;48.79;99696.31;5001975;28;20076;-45
2022/06/29 10:33:35;;;;;;;3.15;1.30;;;;;;;24.98;48.01;99699.03;5056550;27;20409;-49
2022/06/29 10:43:51;;;;;;;2.58;1.33;;;;;;;24.76;46.66;99689.91;5044259;28;20401;-47
2022/06/29 10:46:18;;;;;;;2.80;1.05;;;;;;;24.72;47.16;99688.41;5009452;28;20049;-50
2022/06/29 10:49:24;;;;;;;2.17;0.82;;;;;;;24.69;46.81;99693.91;5009450;28;20065;-46
2022/06/29 17:01:16;;;;;;;3.15;0.70;;;;;;;24.30;43.59;99551.78;5058303;27;20403;-45
2022/06/29 17:03:43;;;;;;;7.75;0.82;;;;;;;24.38;43.28;99554.75;5037915;28;20049;-46
2022/06/29 17:06:09;;;;;;;3.42;1.38;;;;;;;24.46;43.07;99550.75;5041122;28;20060;-45
2022/06/29 17:08:36;;;;;;;3.58;0.65;;;;;;;24.50;43.42;99554.88;5038518;28;20060;-48
2022/06/29 17:11:02;;;;;;;2.33;0.75;;;;;;;24.53;43.78;99562.59;5039437;28;20045;-46
2022/06/29 17:13:29;;;;;;;3.70;0.95;;;;;;;24.49;43.53;99555.81;5040478;28;20041;-49
2022/06/29 17:15:56;;;;;;;2.67;0.52;;;;;;;24.43;43.53;99545.66;5039095;28;20405;-50
2022/06/29 17:18:22;;;;;;;1.95;0.50;;;;;;;24.35;43.80;99548.84;5037771;28;20499;-45
2022/06/29 17:20:49;;;;;;;4.30;0.80;;;;;;;24.29;43.70;99552.75;5041109;28;20045;-49
2022/06/29 17:23:16;;;;;;;2.83;0.52;;;;;;;24.25;44.29;99554.75;5036256;28;20103;-46
2022/06/29 17:25:42;;;;;;;2.67;1.20;;;;;;;24.24;43.89;99546.91;5038919;28;20046;-47
2022/06/29 17:28:09;;;;;;;2.72;0.60;;;;;;;24.23;44.47;99561.09;5034113;28;20045;-46
2022/06/29 17:30:36;;;;;;;2.38;0.65;;;;;;;24.21;44.09;99547.16;5053515;28;20060;-48
2022/06/29 17:33:02;;;;;;;3.05;0.60;;;;;;;24.16;44.56;99542.16;5056316;28;20048;-48
2022/06/29 17:35:29;;;;;;;2.55;0.65;;;;;;;24.08;44.49;99537.34;5061593;28;20110;-49
2022/06/29 17:37:56;;;;;;;2.88;0.70;;;;;;;24.03;44.96;99543.91;5057837;28;21566;-45
2022/06/29 17:40:23;;;;;;;2.25;0.40;;;;;;;23.99;45.22;99535.34;5060010;28;20044;-46
2022/06/29 17:42:52;;;;;;;1.75;0.52;;;;;;;23.95;44.75;99533.84;5054380;28;20056;-47
2022/06/29 17:45:19;;;;;;;3.58;0.88;;;;;;;23.90;44.42;99528.00;5060995;28;20099;-48
2022/06/29 17:47:45;;;;;;;4.03;0.55;;;;;;;23.86;44.94;99527.38;5057427;28;20053;-49
2022/06/29 17:50:12;;;;;;;1.85;0.82;;;;;;;23.84;44.88;99524.00;5060824;28;20056;-48
2022/06/29 17:52:39;;;;;;;5.22;0.70;;;;;;;23.79;45.14;99521.66;5059344;28;20087;-45
2022/06/29 17:55:06;;;;;;;3.72;0.93;;;;;;;23.75;45.08;99517.53;5039152;28;20057;-46
2022/06/29 17:57:33;;;;;;;2.53;0.50;;;;;;;23.68;44.76;99529.44;5036616;28;20045;-46
2022/06/29 17:59:59;;;;;;;2.33;0.52;;;;;;;23.64;45.05;99533.25;5039486;28;20045;-46
2022/06/29 18:02:26;;;;;;;5.75;1.70;;;;;;;23.57;45.42;99544.22;5036986;28;20049;-46
2022/06/29 18:04:53;;;;;;;4.07;0.95;;;;;;;23.47;45.82;99543.13;5035591;28;20761;-46
2022/06/29 18:07:20;;;;;;;5.95;0.93;;;;;;;23.36;45.45;99552.59;5036187;28;20061;-50
2022/06/29 18:09:49;;;;;;;5.43;1.42;;;;;;;23.29;45.36;99556.53;5052312;28;20056;-50
2022/06/29 18:12:16;;;;;;;2.88;0.63;;;;;;;23.26;45.38;99556.75;5035940;28;20044;-47
2022/06/29 18:14:44;;;;;;;3.70;0.80;;;;;;;23.21;45.60;99553.56;5025223;28;20426;-49
2022/06/29 18:17:11;;;;;;;3.28;0.95;;;;;;;23.16;45.33;99550.34;5025720;28;20061;-45
2022/06/29 18:19:38;;;;;;;3.85;0.63;;;;;;;23.13;46.15;99550.56;5026449;28;20111;-46
2022/06/29 18:22:05;;;;;;;5.22;0.98;;;;;;;23.10;45.46;99547.16;5026444;28;20068;-46